Time;durP1;ratioP1;P1;durP2;ratioP2;P2;SDS_P1;SDS_P2;PMS_P1;PMS_P2;Temp;Humidity;BMP_temperature;BMP_pressure;BME280_temperature;BME280_humidity;BME280_pressure;Samples;Min_cycle;Max_cycle;Signal;HPM_P1;HPM_P2
2022/09/04 00:01:20;;;;;;;7.80;4.50;;;17.30;97.50;;;;;;5032192;28;20938;-71
2022/09/04 00:04:29;;;;;;;7.60;4.90;;;17.20;97.50;;;;;;5027986;28;20459;-71
2022/09/04 00:07:18;;;;;;;6.00;3.70;;;17.30;97.70;;;;;;5030841;28;20428;-73
2022/09/04 00:10:08;;;;;;;5.47;3.80;;;17.30;97.90;;;;;;5015901;28;20479;-71
2022/09/04 00:13:03;;;;;;;6.87;4.57;;;17.30;97.90;;;;;;5026875;28;20469;-72
2022/09/04 00:15:35;;;;;;;7.00;4.10;;;17.30;98.00;;;;;;5028215;28;20514;-72
2022/09/04 00:18:12;;;;;;;5.80;3.83;;;17.30;98.00;;;;;;5038126;28;20420;-71
2022/09/04 00:20:44;;;;;;;7.23;4.20;;;17.30;98.00;;;;;;5026781;28;20891;-72
2022/09/04 00:23:28;;;;;;;5.43;3.60;;;17.30;97.90;;;;;;5028492;28;20456;-73
2022/09/04 00:26:03;;;;;;;3.80;3.23;;;17.20;97.80;;;;;;5027769;28;20491;-72
2022/09/04 00:28:38;;;;;;;5.63;3.67;;;17.20;97.70;;;;;;5014493;28;20420;-70
2022/09/04 00:31:29;;;;;;;5.13;3.20;;;17.10;97.80;;;;;;5034186;28;20424;-71
2022/09/04 00:34:46;;;;;;;4.43;3.30;;;17.10;98.00;;;;;;5028982;28;20940;-70
2022/09/04 00:37:17;;;;;;;6.43;4.07;;;17.10;98.00;;;;;;4991835;28;20416;-71
2022/09/04 00:39:50;;;;;;;6.87;3.63;;;17.00;98.00;;;;;;5033178;28;20468;-71
2022/09/04 00:42:36;;;;;;;5.37;3.40;;;17.00;98.00;;;;;;5032488;28;20463;-72
2022/09/04 00:45:32;;;;;;;5.03;3.50;;;17.00;98.00;;;;;;5031365;28;20454;-71
2022/09/04 00:48:44;;;;;;;8.93;4.70;;;17.00;98.00;;;;;;5030871;28;20431;-71
2022/09/04 00:51:29;;;;;;;8.50;5.60;;;16.90;98.00;;;;;;5024818;28;20455;-71
2022/09/04 00:53:58;;;;;;;9.00;5.10;;;16.80;98.10;;;;;;5030039;28;20443;-71
2022/09/04 00:56:42;;;;;;;8.50;4.80;;;16.80;98.10;;;;;;5030822;28;20876;-71
2022/09/04 00:59:25;;;;;;;6.43;4.60;;;16.80;98.30;;;;;;5026554;28;20443;-71
2022/09/04 01:01:58;;;;;;;9.40;5.97;;;16.80;98.30;;;;;;5022490;28;20595;-70
2022/09/04 01:04:41;;;;;;;7.30;4.80;;;16.80;98.40;;;;;;5019460;28;20778;-70
2022/09/04 01:07:21;;;;;;;8.10;4.10;;;16.90;98.40;;;;;;5024030;28;20417;-70
2022/09/04 01:09:50;;;;;;;6.03;3.70;;;16.90;98.30;;;;;;5027579;28;21074;-69
2022/09/04 01:12:39;;;;;;;5.20;3.47;;;16.90;98.20;;;;;;5021760;28;20466;-70
2022/09/04 01:15:33;;;;;;;6.00;3.80;;;16.90;98.10;;;;;;5023279;28;20469;-71
2022/09/04 01:18:19;;;;;;;7.40;4.40;;;16.80;98.00;;;;;;5029086;28;20836;-70
2022/09/04 01:21:00;;;;;;;8.30;5.13;;;16.80;98.00;;;;;;5029276;28;20463;-70
2022/09/04 01:23:31;;;;;;;6.83;4.13;;;16.80;97.90;;;;;;5023450;28;20467;-70
2022/09/04 01:26:07;;;;;;;7.20;4.50;;;16.80;98.00;;;;;;5028133;28;20458;-71
2022/09/04 01:29:02;;;;;;;6.60;4.03;;;16.70;98.00;;;;;;5029705;28;20527;-70
2022/09/04 01:31:57;;;;;;;7.33;4.40;;;16.70;98.10;;;;;;5025817;28;20467;-69
2022/09/04 01:34:58;;;;;;;9.00;4.83;;;16.70;98.10;;;;;;5024627;28;20497;-71
2022/09/04 01:37:54;;;;;;;14.03;5.47;;;16.70;98.20;;;;;;5022931;28;20936;-70
2022/09/04 01:40:50;;;;;;;9.20;5.03;;;16.70;98.20;;;;;;5011350;28;20521;-70
2022/09/04 01:43:20;;;;;;;10.70;6.10;;;16.70;98.20;;;;;;5023440;28;20527;-71
2022/09/04 01:46:20;;;;;;;9.80;5.80;;;16.60;98.20;;;;;;5010720;28;20491;-70
2022/09/04 01:48:48;;;;;;;10.00;5.47;;;16.60;98.40;;;;;;5029044;28;20435;-70
2022/09/04 01:51:26;;;;;;;8.70;5.47;;;16.60;98.30;;;;;;5024324;28;20495;-70
2022/09/04 01:54:05;;;;;;;7.50;5.23;;;16.60;98.20;;;;;;5026426;28;20420;-70
2022/09/04 01:57:04;;;;;;;10.07;5.53;;;16.50;98.10;;;;;;5020582;28;20420;-70
2022/09/04 01:59:49;;;;;;;9.10;5.13;;;16.50;98.10;;;;;;5022702;28;20502;-71
2022/09/04 02:02:45;;;;;;;7.97;5.50;;;16.50;98.20;;;;;;5004186;28;20463;-70
2022/09/04 02:05:35;;;;;;;10.20;6.00;;;16.50;98.10;;;;;;5022314;28;20415;-70
2022/09/04 02:08:10;;;;;;;7.90;5.40;;;16.40;98.00;;;;;;5030747;28;20509;-70
2022/09/04 02:10:55;;;;;;;11.97;5.40;;;16.40;98.10;;;;;;5030535;28;20411;-70
2022/09/04 02:13:45;;;;;;;10.60;5.20;;;16.40;98.10;;;;;;5023312;28;21045;-70
2022/09/04 02:16:18;;;;;;;7.47;5.00;;;16.50;98.20;;;;;;5024621;28;20936;-70
2022/09/04 02:19:18;;;;;;;11.37;5.63;;;16.50;98.00;;;;;;5008490;28;20422;-71
2022/09/04 02:22:04;;;;;;;9.10;5.40;;;16.50;97.90;;;;;;5027540;28;20472;-71
2022/09/04 02:24:50;;;;;;;7.10;5.00;;;16.50;97.90;;;;;;5026388;28;20999;-71
2022/09/04 02:27:44;;;;;;;8.10;5.00;;;16.50;97.90;;;;;;5030017;28;20417;-73
2022/09/04 02:30:12;;;;;;;7.83;5.07;;;16.50;98.00;;;;;;5032337;28;20427;-70
2022/09/04 02:32:47;;;;;;;7.97;5.00;;;16.40;97.90;;;;;;5027663;28;20452;-71
2022/09/04 02:35:22;;;;;;;11.90;6.13;;;16.40;98.00;;;;;;5023701;28;20461;-70
2022/09/04 02:38:06;;;;;;;14.73;5.60;;;16.40;97.80;;;;;;5029268;28;20860;-71
2022/09/04 02:40:59;;;;;;;6.63;5.00;;;16.30;97.90;;;;;;5029752;28;20888;-72
2022/09/04 02:43:34;;;;;;;11.23;5.70;;;16.30;98.00;;;;;;5026048;28;20467;-71
2022/09/04 02:46:18;;;;;;;11.00;6.10;;;16.30;98.10;;;;;;5031855;28;20422;-72
2022/09/04 02:49:17;;;;;;;8.33;4.90;;;16.20;98.10;;;;;;5032350;28;20477;-72
2022/09/04 02:51:55;;;;;;;8.00;5.17;;;16.20;98.20;;;;;;5011958;28;20558;-71
2022/09/04 02:54:37;;;;;;;11.63;5.13;;;16.20;98.30;;;;;;5031070;28;20438;-72
2022/09/04 02:57:11;;;;;;;8.20;4.80;;;16.20;98.40;;;;;;5014480;28;20431;-71
2022/09/04 03:00:18;;;;;;;9.53;5.70;;;16.20;98.30;;;;;;5032619;28;20464;-71
2022/09/04 03:03:01;;;;;;;6.40;4.63;;;16.20;98.30;;;;;;5030576;28;20459;-72
2022/09/04 03:05:45;;;;;;;9.03;5.37;;;16.10;98.20;;;;;;5032328;28;20934;-70
2022/09/04 03:08:34;;;;;;;8.37;4.83;;;16.10;98.40;;;;;;5040166;28;20961;-71
2022/09/04 03:11:03;;;;;;;9.77;5.30;;;16.10;98.40;;;;;;5037239;28;20439;-72
2022/09/04 03:13:37;;;;;;;8.27;4.43;;;16.10;98.40;;;;;;5030923;28;20487;-72
2022/09/04 03:16:14;;;;;;;7.03;4.67;;;16.10;98.40;;;;;;5031501;28;20424;-71
2022/09/04 03:18:59;;;;;;;8.83;4.90;;;16.10;98.40;;;;;;5031094;28;20927;-71
2022/09/04 03:21:57;;;;;;;6.10;4.50;;;16.00;98.40;;;;;;5024267;28;20545;-71
2022/09/04 03:24:33;;;;;;;8.43;4.93;;;16.10;98.30;;;;;;5030557;28;20424;-71
2022/09/04 03:27:03;;;;;;;9.90;5.13;;;16.00;97.90;;;;;;5031716;28;20974;-71
2022/09/04 03:29:28;;;;;;;9.37;5.07;;;16.00;97.70;;;;;;5026963;28;20438;-70
2022/09/04 03:32:22;;;;;;;10.53;5.20;;;15.90;97.70;;;;;;5028248;28;21124;-71
2022/09/04 03:35:13;;;;;;;7.43;4.17;;;15.80;97.70;;;;;;5028202;28;20212;-71
2022/09/04 03:37:45;;;;;;;10.93;5.83;;;15.80;97.80;;;;;;5028470;28;21198;-71
2022/09/04 03:40:41;;;;;;;10.17;5.50;;;15.80;97.80;;;;;;5024879;28;20513;-71
2022/09/04 03:43:38;;;;;;;6.63;4.07;;;15.70;97.80;;;;;;5026099;28;20466;-71
2022/09/04 03:46:30;;;;;;;9.20;5.87;;;15.60;98.00;;;;;;5012754;28;20999;-70
2022/09/04 03:49:17;;;;;;;8.73;5.33;;;15.70;98.10;;;;;;5029852;28;20424;-71
2022/09/04 03:52:07;;;;;;;8.63;4.57;;;15.70;98.20;;;;;;5021853;28;20452;-72
2022/09/04 03:54:41;;;;;;;7.40;5.07;;;15.70;98.20;;;;;;5024316;28;20817;-71
2022/09/04 03:57:51;;;;;;;7.63;4.90;;;15.60;98.20;;;;;;5004672;28;21014;-71
2022/09/04 04:00:19;;;;;;;7.90;5.00;;;15.60;98.20;;;;;;4930955;29;20487;-71
2022/09/04 04:02:57;;;;;;;9.30;5.17;;;15.60;98.30;;;;;;4929341;29;20582;-71
2022/09/04 04:05:42;;;;;;;7.23;4.70;;;15.70;98.40;;;;;;4930645;29;20435;-73
2022/09/04 04:08:26;;;;;;;6.50;4.67;;;15.60;98.40;;;;;;4931051;29;20424;-70
2022/09/04 04:10:55;;;;;;;7.90;5.50;;;15.70;98.30;;;;;;4929313;29;20511;-71
2022/09/04 04:13:49;;;;;;;8.30;5.00;;;15.70;98.10;;;;;;4928854;29;20460;-71
2022/09/04 04:16:45;;;;;;;7.20;4.80;;;15.60;98.00;;;;;;4930956;29;20441;-70
2022/09/04 04:19:32;;;;;;;9.80;4.57;;;15.60;97.90;;;;;;4929030;29;20436;-72
2022/09/04 04:22:03;;;;;;;7.97;5.43;;;15.60;97.70;;;;;;4929363;29;20471;-71
2022/09/04 04:25:06;;;;;;;9.03;4.97;;;15.60;97.70;;;;;;4929829;29;20936;-72
2022/09/04 04:27:53;;;;;;;9.87;4.27;;;15.60;97.80;;;;;;4931361;29;20432;-72
2022/09/04 04:30:19;;;;;;;8.53;4.77;;;15.60;97.80;;;;;;4929957;29;20432;-71
2022/09/04 04:33:15;;;;;;;8.10;5.10;;;15.60;98.00;;;;;;4912141;29;20472;-70
2022/09/04 04:36:20;;;;;;;6.03;4.23;;;15.60;98.10;;;;;;5024335;28;20440;-71
2022/09/04 04:38:57;;;;;;;7.30;4.47;;;15.60;98.10;;;;;;5018341;28;20444;-71
2022/09/04 04:41:29;;;;;;;8.87;4.87;;;15.60;98.30;;;;;;5027311;28;20499;-71
2022/09/04 04:44:09;;;;;;;7.47;4.80;;;15.60;98.20;;;;;;5022203;28;20443;-72
2022/09/04 04:47:04;;;;;;;7.30;4.73;;;15.60;98.10;;;;;;5012383;28;20483;-71
2022/09/04 04:49:59;;;;;;;9.07;4.83;;;15.60;97.90;;;;;;5024902;28;20895;-70
2022/09/04 04:52:46;;;;;;;9.30;4.90;;;15.60;97.90;;;;;;5024944;28;20496;-70
2022/09/04 04:55:48;;;;;;;7.87;4.63;;;15.60;98.00;;;;;;5023093;28;20408;-69
2022/09/04 04:58:42;;;;;;;7.00;4.43;;;15.60;97.80;;;;;;5026514;28;20421;-70
2022/09/04 05:01:23;;;;;;;6.47;4.57;;;15.60;97.80;;;;;;5025137;28;20795;-69
2022/09/04 05:04:33;;;;;;;6.97;4.40;;;15.60;97.80;;;;;;5023831;28;20438;-70
2022/09/04 05:07:37;;;;;;;6.83;4.50;;;15.60;98.00;;;;;;5006052;28;20431;-72
2022/09/04 05:10:21;;;;;;;7.53;5.17;;;15.60;98.00;;;;;;4993447;28;20423;-71
2022/09/04 05:12:56;;;;;;;6.70;4.27;;;15.60;98.00;;;;;;5023609;28;20455;-71
2022/09/04 05:15:59;;;;;;;9.27;5.33;;;15.60;97.90;;;;;;5029327;28;20435;-71
2022/09/04 05:18:36;;;;;;;6.63;4.20;;;15.60;98.00;;;;;;5013689;28;20441;-71
2022/09/04 05:21:22;;;;;;;8.10;4.73;;;15.70;98.00;;;;;;5029150;28;20458;-71
2022/09/04 05:23:59;;;;;;;10.33;5.37;;;15.60;97.80;;;;;;5026630;28;20423;-72
2022/09/04 05:26:43;;;;;;;8.00;4.27;;;15.60;97.60;;;;;;5029238;28;20423;-72
2022/09/04 05:29:50;;;;;;;8.80;5.27;;;15.60;97.60;;;;;;5021840;28;20403;-72
2022/09/04 05:32:29;;;;;;;7.87;4.47;;;15.60;97.60;;;;;;5018912;28;20452;-71
2022/09/04 05:34:58;;;;;;;6.87;4.87;;;15.60;97.70;;;;;;5024061;28;20427;-70
2022/09/04 05:37:49;;;;;;;9.00;5.20;;;15.70;97.80;;;;;;5029441;28;20431;-72
2022/09/04 05:40:52;;;;;;;8.80;5.60;;;15.60;97.70;;;;;;5029416;28;20562;-72
2022/09/04 05:43:18;;;;;;;8.17;5.70;;;15.70;97.80;;;;;;5030195;28;21017;-72
2022/09/04 05:45:49;;;;;;;10.40;5.63;;;15.70;97.40;;;;;;5031174;28;20446;-71
2022/09/04 05:48:56;;;;;;;9.97;5.10;;;15.70;97.10;;;;;;5032853;28;20233;-72
2022/09/04 05:52:06;;;;;;;8.63;5.20;;;15.70;97.10;;;;;;5028410;28;20427;-71
2022/09/04 05:54:50;;;;;;;9.23;5.60;;;15.70;97.10;;;;;;4990553;28;20432;-73
2022/09/04 05:57:33;;;;;;;10.00;5.00;;;15.70;97.20;;;;;;5033033;28;20455;-71
2022/09/04 06:00:16;;;;;;;8.20;5.17;;;15.70;97.40;;;;;;5028561;28;20485;-71
2022/09/04 06:03:11;;;;;;;7.77;5.20;;;15.80;97.50;;;;;;5019959;28;20452;-73
2022/09/04 06:06:04;;;;;;;8.07;5.10;;;15.90;97.60;;;;;;5027593;28;20415;-72
2022/09/04 06:09:02;;;;;;;8.20;5.03;;;16.00;97.30;;;;;;5030666;28;20466;-73
2022/09/04 06:11:50;;;;;;;6.40;4.77;;;15.90;97.10;;;;;;5022974;28;20534;-71
2022/09/04 06:14:43;;;;;;;9.77;5.07;;;15.90;97.00;;;;;;5021729;28;20447;-70
2022/09/04 06:17:33;;;;;;;11.30;5.40;;;16.00;96.80;;;;;;5023387;28;20445;-71
2022/09/04 06:20:04;;;;;;;7.27;5.10;;;15.90;96.80;;;;;;5032255;28;20554;-72
2022/09/04 06:22:51;;;;;;;8.80;5.93;;;15.90;96.90;;;;;;5026679;28;21194;-73
2022/09/04 06:25:44;;;;;;;9.67;5.77;;;15.90;97.00;;;;;;5031107;28;21019;-71
2022/09/04 06:28:22;;;;;;;6.43;4.90;;;16.00;96.80;;;;;;5030038;28;20418;-70
2022/09/04 06:30:51;;;;;;;9.70;5.33;;;16.10;96.50;;;;;;5025944;28;20480;-68
2022/09/04 06:33:50;;;;;;;9.40;6.50;;;16.20;96.40;;;;;;5024658;28;20958;-71
2022/09/04 06:36:30;;;;;;;8.27;5.50;;;16.20;96.40;;;;;;5021363;28;20443;-69
2022/09/04 06:39:43;;;;;;;6.90;5.07;;;16.30;96.50;;;;;;5031178;28;20999;-69
2022/09/04 06:42:27;;;;;;;10.77;5.40;;;16.40;96.60;;;;;;5028123;28;20458;-70
2022/09/04 06:45:08;;;;;;;8.80;5.13;;;16.40;96.70;;;;;;5028041;28;21036;-70
2022/09/04 06:47:52;;;;;;;8.37;5.47;;;16.50;96.70;;;;;;5028316;28;20993;-68
2022/09/04 06:50:51;;;;;;;9.30;5.73;;;16.60;96.60;;;;;;5026936;28;20439;-69
2022/09/04 06:53:47;;;;;;;8.83;5.30;;;16.70;96.60;;;;;;5026533;28;20459;-69
2022/09/04 06:56:39;;;;;;;9.17;5.70;;;16.80;96.60;;;;;;5013576;28;20448;-70
2022/09/04 06:59:59;;;;;;;10.97;7.50;;;16.90;96.60;;;;;;5011832;28;20431;-69
2022/09/04 07:02:43;;;;;;;10.13;6.53;;;17.00;96.50;;;;;;4952950;28;20470;-71
2022/09/04 07:05:31;;;;;;;9.00;5.00;;;17.00;96.50;;;;;;4950834;29;20485;-70
2022/09/04 07:08:17;;;;;;;8.10;4.83;;;17.10;96.40;;;;;;4950602;28;20444;-71
2022/09/04 07:11:01;;;;;;;12.60;6.47;;;17.20;96.30;;;;;;4947121;29;20527;-68
2022/09/04 07:13:43;;;;;;;7.63;5.33;;;17.30;96.10;;;;;;4948737;28;20952;-70
2022/09/04 07:16:17;;;;;;;8.07;4.50;;;17.40;95.90;;;;;;4946553;28;20789;-70
2022/09/04 07:19:09;;;;;;;8.27;5.37;;;17.50;95.80;;;;;;4948262;29;20415;-69
2022/09/04 07:22:16;;;;;;;8.40;5.13;;;17.60;95.60;;;;;;4950092;29;20585;-69
2022/09/04 07:25:04;;;;;;;8.20;5.40;;;17.70;95.40;;;;;;4948283;29;20420;-69
2022/09/04 07:27:51;;;;;;;7.10;4.70;;;17.70;95.40;;;;;;4949166;29;21099;-70
2022/09/04 07:30:18;;;;;;;10.43;5.07;;;17.80;95.40;;;;;;4945965;29;20823;-70
2022/09/04 07:32:49;;;;;;;6.23;4.37;;;18.00;95.20;;;;;;4933765;29;20502;-69
2022/09/04 07:35:19;;;;;;;9.17;5.67;;;18.00;95.00;;;;;;4961146;28;20438;-69
2022/09/04 07:37:57;;;;;;;7.00;4.63;;;18.10;94.60;;;;;;5029003;28;20430;-69
2022/09/04 07:40:38;;;;;;;7.33;5.10;;;18.20;94.40;;;;;;5035761;28;20471;-70
2022/09/04 07:43:22;;;;;;;6.50;4.67;;;18.30;94.20;;;;;;5024122;28;20455;-68
2022/09/04 07:45:59;;;;;;;6.20;4.37;;;18.40;93.70;;;;;;5026042;28;21003;-71
2022/09/04 07:48:52;;;;;;;6.07;4.30;;;18.40;93.70;;;;;;5003901;28;20429;-69
2022/09/04 07:51:28;;;;;;;7.87;5.63;;;18.50;93.40;;;;;;5029406;28;20778;-70
2022/09/04 07:54:22;;;;;;;6.50;5.37;;;18.60;93.30;;;;;;5029775;28;20418;-70
2022/09/04 07:57:08;;;;;;;7.60;5.03;;;18.60;92.50;;;;;;5010825;28;20451;-71
2022/09/04 07:59:44;;;;;;;6.37;4.53;;;18.70;92.70;;;;;;5030669;28;20464;-71
2022/09/04 08:02:10;;;;;;;6.77;4.60;;;18.90;92.60;;;;;;5009833;28;20455;-69
2022/09/04 08:05:00;;;;;;;8.97;4.57;;;19.00;92.50;;;;;;5028401;28;20425;-70
2022/09/04 08:07:37;;;;;;;6.30;4.40;;;19.10;92.30;;;;;;5023967;28;20295;-69
2022/09/04 08:10:09;;;;;;;6.90;4.73;;;19.10;91.60;;;;;;5033488;28;20418;-71
2022/09/04 08:12:41;;;;;;;7.70;5.00;;;19.20;91.60;;;;;;5031706;28;20836;-72
2022/09/04 08:15:13;;;;;;;9.10;4.60;;;19.30;91.00;;;;;;5033765;28;20509;-72
2022/09/04 08:17:54;;;;;;;6.17;4.43;;;19.50;91.00;;;;;;5030811;28;20424;-69
2022/09/04 08:20:40;;;;;;;7.20;4.97;;;19.60;90.70;;;;;;5031046;28;20456;-71
2022/09/04 08:23:52;;;;;;;7.20;4.37;;;19.70;90.50;;;;;;5009077;28;21009;-70
2022/09/04 08:26:51;;;;;;;5.33;4.00;;;19.80;90.60;;;;;;5020683;28;20436;-71
2022/09/04 08:29:26;;;;;;;5.20;4.00;;;19.90;90.20;;;;;;5006038;28;20421;-70
2022/09/04 08:32:08;;;;;;;5.30;3.50;;;20.00;89.50;;;;;;5008475;28;20989;-70
2022/09/04 08:35:01;;;;;;;7.13;3.80;;;20.00;87.70;;;;;;5009235;28;20543;-71
2022/09/04 08:37:37;;;;;;;4.30;3.70;;;20.20;87.70;;;;;;5023456;28;20891;-72
2022/09/04 08:40:15;;;;;;;4.93;3.47;;;20.30;87.80;;;;;;5029205;28;20526;-71
2022/09/04 08:43:02;;;;;;;6.17;3.50;;;20.40;86.80;;;;;;5004470;28;20817;-71
2022/09/04 08:45:59;;;;;;;4.87;3.90;;;20.50;85.60;;;;;;5024965;28;20452;-71
2022/09/04 08:49:08;;;;;;;3.70;3.40;;;20.70;85.30;;;;;;5027708;28;20421;-71
2022/09/04 08:52:01;;;;;;;4.47;3.57;;;20.90;85.50;;;;;;5024489;28;20574;-71
2022/09/04 08:54:42;;;;;;;4.77;3.60;;;21.00;85.30;;;;;;5024253;28;20440;-71
2022/09/04 08:57:38;;;;;;;5.37;3.60;;;21.10;85.60;;;;;;5027364;28;21205;-73
2022/09/04 09:00:13;;;;;;;4.90;3.10;;;21.20;85.20;;;;;;5012542;28;20508;-72
2022/09/04 09:03:13;;;;;;;4.83;3.63;;;21.30;83.30;;;;;;5025211;28;20464;-72
2022/09/04 09:06:21;;;;;;;6.03;3.60;;;21.20;82.80;;;;;;5028640;28;20429;-71
2022/09/04 09:09:14;;;;;;;5.23;3.37;;;21.40;82.70;;;;;;4977579;28;20462;-71
2022/09/04 09:12:01;;;;;;;4.93;3.53;;;21.60;82.10;;;;;;5022301;28;20979;-74
2022/09/04 09:14:37;;;;;;;6.43;3.87;;;21.80;81.40;;;;;;5010617;28;20437;-72
2022/09/04 09:17:11;;;;;;;4.77;3.53;;;22.00;80.80;;;;;;5027028;28;20506;-71
2022/09/04 09:19:45;;;;;;;5.50;3.93;;;22.20;80.20;;;;;;5026828;28;20445;-71
2022/09/04 09:22:32;;;;;;;4.90;3.80;;;22.20;79.30;;;;;;5024386;28;20459;-71
2022/09/04 09:25:19;;;;;;;5.97;3.83;;;22.00;78.60;;;;;;5009641;28;20430;-72
2022/09/04 09:28:04;;;;;;;6.77;4.60;;;22.10;80.80;;;;;;5029601;28;20430;-72
2022/09/04 09:31:04;;;;;;;4.30;3.47;;;22.30;80.80;;;;;;5020979;28;20431;-72
2022/09/04 09:33:48;;;;;;;11.10;3.93;;;22.60;80.20;;;;;;5024635;28;20479;-71
2022/09/04 09:36:38;;;;;;;5.30;3.47;;;22.90;77.10;;;;;;5025914;28;20527;-73
2022/09/04 09:39:42;;;;;;;4.40;3.37;;;22.70;74.90;;;;;;5026617;28;21030;-71
2022/09/04 09:42:14;;;;;;;4.57;2.90;;;22.20;74.00;;;;;;5027744;28;20982;-71
2022/09/04 09:45:03;;;;;;;5.67;3.30;;;22.20;75.50;;;;;;5027216;28;20449;-74
2022/09/04 09:47:43;;;;;;;4.57;2.87;;;22.40;75.50;;;;;;5028945;28;20943;-71
2022/09/04 09:50:37;;;;;;;4.53;3.43;;;22.50;75.70;;;;;;5025237;28;20450;-70
2022/09/04 09:53:41;;;;;;;3.77;3.10;;;22.00;76.40;;;;;;5023676;28;20540;-70
2022/09/04 09:56:58;;;;;;;5.40;3.23;;;21.80;77.30;;;;;;4960449;28;20427;-72
2022/09/04 09:59:44;;;;;;;4.00;2.80;;;21.90;77.40;;;;;;4961904;28;20454;-71
2022/09/04 10:02:10;;;;;;;4.37;3.10;;;22.00;76.80;;;;;;4964252;28;20515;-72
2022/09/04 10:05:21;;;;;;;6.33;3.60;;;22.30;77.30;;;;;;4967518;28;20429;-72
2022/09/04 10:08:27;;;;;;;3.40;2.93;;;22.50;77.00;;;;;;4962444;28;20202;-73
2022/09/04 10:11:07;;;;;;;3.50;2.73;;;22.70;74.20;;;;;;4967338;28;20922;-73
2022/09/04 10:13:51;;;;;;;3.80;2.70;;;22.60;72.70;;;;;;4966194;28;20481;-72
2022/09/04 10:16:38;;;;;;;4.23;2.60;;;22.80;72.70;;;;;;4966435;28;20434;-70
2022/09/04 10:19:06;;;;;;;3.40;2.80;;;23.00;71.70;;;;;;4968114;28;20802;-73
2022/09/04 10:22:10;;;;;;;4.20;2.80;;;23.30;70.80;;;;;;4964450;28;20513;-71
2022/09/04 10:24:48;;;;;;;3.30;1.97;;;23.40;69.90;;;;;;4900202;28;20435;-72
2022/09/04 10:27:33;;;;;;;4.33;2.80;;;23.20;69.20;;;;;;5003488;28;20424;-74
2022/09/04 10:30:13;;;;;;;3.50;2.90;;;23.00;67.20;;;;;;5031267;28;20469;-71
2022/09/04 10:32:58;;;;;;;3.83;2.60;;;23.00;68.50;;;;;;5029770;28;21051;-73
2022/09/04 10:35:35;;;;;;;4.13;2.53;;;23.10;69.20;;;;;;5014795;28;20427;-71
2022/09/04 10:38:03;;;;;;;4.20;2.93;;;23.30;69.90;;;;;;5009847;28;20787;-71
2022/09/04 10:40:38;;;;;;;4.60;2.37;;;23.60;68.20;;;;;;5033038;28;20460;-73
2022/09/04 10:43:21;;;;;;;4.10;2.60;;;23.70;66.90;;;;;;5029918;28;20452;-72
2022/09/04 10:45:50;;;;;;;3.10;2.30;;;23.80;66.00;;;;;;5032160;28;20425;-71
2022/09/04 10:48:24;;;;;;;3.70;2.80;;;24.30;64.70;;;;;;5041405;28;20431;-73
2022/09/04 10:51:11;;;;;;;3.57;2.60;;;24.80;63.90;;;;;;5027646;28;20943;-70
2022/09/04 10:54:13;;;;;;;3.50;2.50;;;25.30;62.90;;;;;;5027776;28;20476;-72
2022/09/04 10:57:00;;;;;;;3.13;2.57;;;25.60;60.90;;;;;;5028756;28;20425;-71
2022/09/04 11:00:06;;;;;;;3.03;2.20;;;25.80;61.00;;;;;;5022033;28;21085;-70
2022/09/04 11:03:06;;;;;;;3.53;2.23;;;26.10;60.60;;;;;;5005717;28;20927;-72
2022/09/04 11:05:52;;;;;;;3.70;2.50;;;26.80;58.70;;;;;;5025942;28;20420;-72
2022/09/04 11:08:34;;;;;;;3.83;2.20;;;27.10;56.90;;;;;;5031930;28;20827;-71
2022/09/04 11:11:06;;;;;;;2.80;2.30;;;27.30;56.10;;;;;;5032075;28;20424;-70
2022/09/04 11:13:43;;;;;;;2.83;2.50;;;27.70;55.60;;;;;;5008544;28;20494;-71
2022/09/04 11:16:28;;;;;;;2.70;2.20;;;27.50;54.90;;;;;;5023747;28;20495;-71
2022/09/04 11:19:32;;;;;;;7.97;5.27;;;26.80;56.40;;;;;;5031853;28;20415;-72
2022/09/04 11:22:33;;;;;;;3.03;2.40;;;26.30;57.00;;;;;;5029444;28;20469;-70
2022/09/04 11:25:19;;;;;;;2.60;2.20;;;25.70;58.50;;;;;;5038468;28;20775;-72
2022/09/04 11:28:15;;;;;;;3.80;2.73;;;24.90;60.30;;;;;;5033623;28;20474;-72
2022/09/04 11:30:47;;;;;;;3.83;2.60;;;24.60;61.70;;;;;;5028921;28;20414;-70
2022/09/04 11:33:24;;;;;;;3.43;2.50;;;24.50;61.20;;;;;;5021463;28;20838;-74
2022/09/04 11:35:58;;;;;;;3.33;2.20;;;24.40;61.60;;;;;;5027310;28;20411;-70
2022/09/04 11:38:46;;;;;;;3.17;2.70;;;24.60;61.90;;;;;;5024584;28;20886;-70
2022/09/04 11:41:50;;;;;;;4.03;2.30;;;25.20;61.90;;;;;;5028428;28;20470;-75
2022/09/04 11:44:24;;;;;;;3.73;2.20;;;25.90;58.20;;;;;;5023190;28;20450;-74
2022/09/04 11:47:11;;;;;;;2.53;2.07;;;25.60;56.50;;;;;;5028538;28;20429;-72
2022/09/04 11:50:05;;;;;;;2.97;2.20;;;25.50;57.80;;;;;;5024977;28;20947;-72
2022/09/04 11:52:58;;;;;;;2.33;1.97;;;25.70;56.50;;;;;;5018006;28;20519;-75
2022/09/04 11:55:43;;;;;;;2.53;2.40;;;25.80;56.40;;;;;;5029862;28;20457;-71
2022/09/04 11:58:24;;;;;;;3.30;2.67;;;25.70;56.90;;;;;;4991653;28;20473;-72
2022/09/04 12:01:19;;;;;;;3.17;2.63;;;25.40;56.90;;;;;;5028680;28;20476;-70
2022/09/04 12:03:48;;;;;;;3.03;2.20;;;25.10;57.40;;;;;;5013583;28;20908;-72
2022/09/04 12:06:52;;;;;;;2.30;2.07;;;25.10;57.60;;;;;;5027533;28;20428;-70
2022/09/04 12:09:33;;;;;;;2.67;2.20;;;25.00;58.80;;;;;;5010873;28;20491;-70
2022/09/04 12:12:13;;;;;;;3.20;2.20;;;25.40;57.60;;;;;;5023608;28;20998;-71
2022/09/04 12:14:50;;;;;;;3.00;2.13;;;25.60;56.90;;;;;;5023434;28;20417;-72
2022/09/04 12:17:40;;;;;;;2.33;1.90;;;25.60;56.90;;;;;;5025130;28;20417;-71
2022/09/04 12:20:35;;;;;;;2.70;2.27;;;25.70;56.60;;;;;;5024702;28;20516;-69
2022/09/04 12:23:16;;;;;;;2.20;2.10;;;25.90;55.70;;;;;;5030637;28;20468;-71
2022/09/04 12:26:00;;;;;;;3.40;2.33;;;26.10;55.40;;;;;;5027047;28;20413;-70
2022/09/04 12:28:45;;;;;;;3.80;2.57;;;26.20;54.00;;;;;;5021763;28;20432;-70
2022/09/04 12:31:45;;;;;;;2.93;2.20;;;26.10;54.50;;;;;;5024362;28;20434;-73
2022/09/04 12:34:35;;;;;;;6.13;2.70;;;26.30;55.30;;;;;;5011186;28;20435;-72
2022/09/04 12:37:22;;;;;;;2.40;2.10;;;26.70;54.10;;;;;;5017866;28;20436;-72
2022/09/04 12:40:23;;;;;;;2.00;1.90;;;27.30;52.10;;;;;;5018647;28;20934;-72
2022/09/04 12:43:23;;;;;;;3.43;1.97;;;27.20;51.00;;;;;;5008184;28;20488;-73
2022/09/04 12:46:11;;;;;;;3.10;1.97;;;27.50;51.30;;;;;;5032364;28;20428;-72
2022/09/04 12:48:47;;;;;;;3.10;2.50;;;27.40;50.60;;;;;;5031004;28;20512;-74
2022/09/04 12:51:23;;;;;;;2.33;2.13;;;27.10;51.40;;;;;;5029943;28;20430;-73
2022/09/04 12:54:08;;;;;;;2.47;1.90;;;27.40;49.80;;;;;;5030516;28;20442;-71
2022/09/04 12:56:59;;;;;;;2.80;2.00;;;27.30;50.50;;;;;;5028875;28;20793;-72
2022/09/04 12:59:44;;;;;;;4.47;2.40;;;27.20;49.90;;;;;;5030000;28;20427;-72
2022/09/04 13:02:38;;;;;;;1.93;1.80;;;27.10;50.10;;;;;;5027865;28;20550;-72
2022/09/04 13:05:23;;;;;;;6.57;3.20;;;28.00;49.10;;;;;;5030913;28;20861;-71
2022/09/04 13:07:57;;;;;;;4.20;2.80;;;28.70;47.70;;;;;;5030746;28;20423;-70
2022/09/04 13:10:31;;;;;;;3.87;2.63;;;28.70;47.10;;;;;;5025349;28;20452;-71
2022/09/04 13:13:08;;;;;;;2.40;2.10;;;27.80;49.00;;;;;;5026074;28;20483;-71
2022/09/04 13:15:53;;;;;;;2.93;2.50;;;27.40;49.80;;;;;;5029453;28;20638;-72
2022/09/04 13:18:32;;;;;;;4.10;2.90;;;27.60;49.70;;;;;;5028393;28;20418;-72
2022/09/04 13:21:04;;;;;;;4.10;3.10;;;27.40;50.20;;;;;;5022909;28;20471;-71
2022/09/04 13:23:45;;;;;;;4.23;3.23;;;27.40;49.50;;;;;;5025750;28;21193;-72
2022/09/04 13:26:29;;;;;;;5.57;2.57;;;27.00;50.90;;;;;;5029155;28;21144;-74
2022/09/04 13:29:26;;;;;;;2.90;2.40;;;27.00;50.20;;;;;;5029301;28;20772;-72
2022/09/04 13:32:12;;;;;;;5.20;2.80;;;27.10;49.90;;;;;;5027616;28;20493;-72
2022/09/04 13:34:46;;;;;;;4.33;3.37;;;26.90;50.50;;;;;;5015340;28;20565;-74
2022/09/04 13:37:37;;;;;;;3.07;2.37;;;26.80;51.00;;;;;;5024887;28;20446;-72
2022/09/04 13:40:06;;;;;;;3.77;2.90;;;27.00;51.80;;;;;;5029355;28;20471;-72
2022/09/04 13:43:05;;;;;;;2.77;2.40;;;26.90;50.90;;;;;;5027503;28;20470;-72
2022/09/04 13:45:44;;;;;;;4.20;2.53;;;27.10;51.60;;;;;;5008819;28;20451;-72
2022/09/04 13:48:14;;;;;;;2.80;2.20;;;27.70;50.90;;;;;;5031457;28;20419;-71
2022/09/04 13:50:54;;;;;;;2.60;2.40;;;28.00;49.30;;;;;;5031923;28;20423;-73
2022/09/04 13:53:40;;;;;;;4.57;3.30;;;28.10;48.60;;;;;;5023164;28;20544;-73
2022/09/04 13:56:13;;;;;;;3.40;2.77;;;28.60;48.60;;;;;;5026205;28;20415;-72
2022/09/04 13:58:48;;;;;;;3.27;2.50;;;28.80;47.70;;;;;;5031836;28;20782;-73
2022/09/04 14:01:20;;;;;;;2.73;1.97;;;28.50;48.20;;;;;;5028028;28;20463;-71
2022/09/04 14:03:54;;;;;;;4.90;2.60;;;28.80;47.70;;;;;;5017584;28;20526;-72
2022/09/04 14:06:22;;;;;;;5.00;3.60;;;28.90;46.90;;;;;;5035127;28;20954;-73
2022/09/04 14:08:52;;;;;;;4.23;2.93;;;28.70;47.70;;;;;;5034657;28;20423;-73
2022/09/04 14:11:49;;;;;;;4.90;3.20;;;28.50;47.80;;;;;;5033681;28;20549;-72
2022/09/04 14:14:47;;;;;;;5.03;2.70;;;28.40;47.80;;;;;;5028225;28;20435;-73
2022/09/04 14:17:25;;;;;;;2.73;2.00;;;28.40;48.50;;;;;;5030053;28;20444;-74
2022/09/04 14:20:11;;;;;;;2.50;2.20;;;28.40;48.20;;;;;;5032284;28;20434;-72